sensor_id;sensor_type;location;lat;lon;timestamp;pressure;altitude;pressure_sealevel;temperature;humidity
34177;BME280;20450;49.074;9.158;2022-10-15T00:02:22;98780.50;;;14.78;100.00
34177;BME280;20450;49.074;9.158;2022-10-15T00:04:49;98776.75;;;14.80;100.00
34177;BME280;20450;49.074;9.158;2022-10-15T00:07:16;98776.41;;;14.75;100.00
34177;BME280;20450;49.074;9.158;2022-10-15T00:09:43;98779.53;;;14.79;100.00
34177;BME280;20450;49.074;9.158;2022-10-15T00:12:09;98768.06;;;14.80;100.00
34177;BME280;20450;49.074;9.158;2022-10-15T00:14:37;98773.44;;;14.78;100.00
34177;BME280;20450;49.074;9.158;2022-10-15T00:17:03;98771.00;;;14.77;100.00
34177;BME280;20450;49.074;9.158;2022-10-15T00:19:32;98770.66;;;14.72;100.00
34177;BME280;20450;49.074;9.158;2022-10-15T00:21:59;98762.66;;;14.73;100.00
34177;BME280;20450;49.074;9.158;2022-10-15T00:24:26;98763.59;;;14.72;100.00
34177;BME280;20450;49.074;9.158;2022-10-15T00:26:53;98757.41;;;14.73;100.00
34177;BME280;20450;49.074;9.158;2022-10-15T00:29:20;98761.81;;;14.73;100.00
34177;BME280;20450;49.074;9.158;2022-10-15T00:31:51;98760.19;;;14.72;100.00
34177;BME280;20450;49.074;9.158;2022-10-15T00:34:18;98751.31;;;14.73;100.00
34177;BME280;20450;49.074;9.158;2022-10-15T00:36:49;98747.88;;;14.72;100.00
34177;BME280;20450;49.074;9.158;2022-10-15T00:39:16;98741.13;;;14.70;100.00
34177;BME280;20450;49.074;9.158;2022-10-15T00:41:43;98738.22;;;14.73;100.00
34177;BME280;20450;49.074;9.158;2022-10-15T00:47:28;98731.97;;;14.74;100.00
34177;BME280;20450;49.074;9.158;2022-10-15T00:50:04;98736.56;;;14.72;100.00
34177;BME280;20450;49.074;9.158;2022-10-15T00:52:38;98731.97;;;14.74;100.00
34177;BME280;20450;49.074;9.158;2022-10-15T00:55:12;98734.59;;;14.74;100.00
34177;BME280;20450;49.074;9.158;2022-10-15T00:57:42;98725.94;;;14.73;100.00
34177;BME280;20450;49.074;9.158;2022-10-15T01:00:13;98720.69;;;14.73;100.00
34177;BME280;20450;49.074;9.158;2022-10-15T01:02:42;98730.84;;;14.76;100.00
34177;BME280;20450;49.074;9.158;2022-10-15T01:05:11;98720.03;;;14.79;100.00
34177;BME280;20450;49.074;9.158;2022-10-15T01:07:41;98715.59;;;14.80;100.00
34177;BME280;20450;49.074;9.158;2022-10-15T01:10:09;98713.97;;;14.79;100.00
34177;BME280;20450;49.074;9.158;2022-10-15T01:12:56;98714.47;;;14.82;100.00
34177;BME280;20450;49.074;9.158;2022-10-15T01:15:35;98709.69;;;14.86;100.00
34177;BME280;20450;49.074;9.158;2022-10-15T01:18:13;98708.06;;;14.85;100.00
34177;BME280;20450;49.074;9.158;2022-10-15T01:20:50;98708.25;;;14.91;100.00
34177;BME280;20450;49.074;9.158;2022-10-15T01:26:56;98713.16;;;14.86;100.00
34177;BME280;20450;49.074;9.158;2022-10-15T01:33:11;98708.06;;;14.85;100.00
34177;BME280;20450;49.074;9.158;2022-10-15T01:35:49;98700.34;;;14.83;100.00
34177;BME280;20450;49.074;9.158;2022-10-15T01:38:26;98703.16;;;14.82;100.00
34177;BME280;20450;49.074;9.158;2022-10-15T01:41:08;98702.81;;;14.85;100.00
34177;BME280;20450;49.074;9.158;2022-10-15T01:43:44;98688.41;;;14.89;100.00
34177;BME280;20450;49.074;9.158;2022-10-15T01:46:33;98684.47;;;14.85;100.00
34177;BME280;20450;49.074;9.158;2022-10-15T01:49:07;98681.03;;;14.84;100.00
34177;BME280;20450;49.074;9.158;2022-10-15T01:51:42;98683.47;;;14.86;100.00
34177;BME280;20450;49.074;9.158;2022-10-15T01:54:14;98675.78;;;14.84;100.00
34177;BME280;20450;49.074;9.158;2022-10-15T01:56:46;98669.38;;;14.87;100.00
34177;BME280;20450;49.074;9.158;2022-10-15T01:59:21;98667.91;;;14.92;100.00
34177;BME280;20450;49.074;9.158;2022-10-15T02:01:55;98670.69;;;14.91;100.00
34177;BME280;20450;49.074;9.158;2022-10-15T02:04:25;98670.69;;;14.91;100.00
34177;BME280;20450;49.074;9.158;2022-10-15T02:06:59;98665.78;;;14.88;100.00
34177;BME280;20450;49.074;9.158;2022-10-15T02:09:35;98674.00;;;14.93;100.00
34177;BME280;20450;49.074;9.158;2022-10-15T02:12:25;98654.31;;;14.89;100.00
34177;BME280;20450;49.074;9.158;2022-10-15T02:15:05;98653.00;;;14.93;100.00
34177;BME280;20450;49.074;9.158;2022-10-15T02:17:42;98661.84;;;14.92;100.00
34177;BME280;20450;49.074;9.158;2022-10-15T02:20:19;98659.72;;;14.87;100.00
34177;BME280;20450;49.074;9.158;2022-10-15T02:22:55;98658.25;;;14.93;100.00
34177;BME280;20450;49.074;9.158;2022-10-15T02:25:29;98667.41;;;14.97;100.00
34177;BME280;20450;49.074;9.158;2022-10-15T02:27:58;98669.06;;;14.98;100.00
34177;BME280;20450;49.074;9.158;2022-10-15T02:30:28;98668.41;;;14.96;100.00
34177;BME280;20450;49.074;9.158;2022-10-15T02:32:58;98667.25;;;14.98;100.00
34177;BME280;20450;49.074;9.158;2022-10-15T02:35:26;98677.59;;;15.00;100.00
34177;BME280;20450;49.074;9.158;2022-10-15T02:37:56;98677.09;;;15.04;100.00
34177;BME280;20450;49.074;9.158;2022-10-15T02:40:28;98669.56;;;15.09;100.00
34177;BME280;20450;49.074;9.158;2022-10-15T02:43:04;98672.84;;;15.11;100.00
34177;BME280;20450;49.074;9.158;2022-10-15T02:45:33;98669.06;;;15.14;100.00
34177;BME280;20450;49.074;9.158;2022-10-15T02:48:04;98668.91;;;15.15;100.00
34177;BME280;20450;49.074;9.158;2022-10-15T02:50:31;98669.41;;;15.19;100.00
34177;BME280;20450;49.074;9.158;2022-10-15T02:52:58;98669.41;;;15.19;100.00
34177;BME280;20450;49.074;9.158;2022-10-15T02:55:25;98671.69;;;15.22;100.00
34177;BME280;20450;49.074;9.158;2022-10-15T02:57:52;98672.34;;;15.24;100.00
34177;BME280;20450;49.074;9.158;2022-10-15T03:00:23;98677.44;;;15.25;100.00
34177;BME280;20450;49.074;9.158;2022-10-15T03:02:50;98681.53;;;15.28;100.00
34177;BME280;20450;49.074;9.158;2022-10-15T03:05:19;98683.69;;;15.32;100.00
34177;BME280;20450;49.074;9.158;2022-10-15T03:07:47;98687.16;;;15.33;100.00
34177;BME280;20450;49.074;9.158;2022-10-15T03:10:14;98684.53;;;15.33;100.00
34177;BME280;20450;49.074;9.158;2022-10-15T03:12:41;98691.06;;;15.37;100.00
34177;BME280;20450;49.074;9.158;2022-10-15T03:15:09;98681.56;;;15.36;100.00
34177;BME280;20450;49.074;9.158;2022-10-15T03:17:37;98675.50;;;15.35;100.00
34177;BME280;20450;49.074;9.158;2022-10-15T03:20:05;98681.41;;;15.37;100.00
34177;BME280;20450;49.074;9.158;2022-10-15T03:22:37;98680.41;;;15.38;100.00
34177;BME280;20450;49.074;9.158;2022-10-15T03:25:04;98680.91;;;15.42;100.00
34177;BME280;20450;49.074;9.158;2022-10-15T03:27:32;98679.25;;;15.41;100.00
34177;BME280;20450;49.074;9.158;2022-10-15T03:29:59;98684.16;;;15.44;100.00
34177;BME280;20450;49.074;9.158;2022-10-15T03:32:28;98680.72;;;15.43;100.00
34177;BME280;20450;49.074;9.158;2022-10-15T03:35:01;98682.22;;;15.46;100.00
34177;BME280;20450;49.074;9.158;2022-10-15T03:37:28;98678.59;;;15.47;100.00
34177;BME280;20450;49.074;9.158;2022-10-15T03:39:56;98681.88;;;15.49;100.00
34177;BME280;20450;49.074;9.158;2022-10-15T03:42:26;98678.59;;;15.47;100.00
34177;BME280;20450;49.074;9.158;2022-10-15T03:44:53;98683.53;;;15.50;100.00
34177;BME280;20450;49.074;9.158;2022-10-15T03:47:20;98681.53;;;15.52;100.00
34177;BME280;20450;49.074;9.158;2022-10-15T03:49:48;98681.19;;;15.55;100.00
34177;BME280;20450;49.074;9.158;2022-10-15T03:52:15;98693.53;;;15.54;100.00
34177;BME280;20450;49.074;9.158;2022-10-15T03:54:44;98687.78;;;15.51;100.00
34177;BME280;20450;49.074;9.158;2022-10-15T03:57:15;98694.00;;;15.58;100.00
34177;BME280;20450;49.074;9.158;2022-10-15T03:59:46;98696.63;;;15.58;100.00
34177;BME280;20450;49.074;9.158;2022-10-15T04:02:14;98690.38;;;15.59;100.00
34177;BME280;20450;49.074;9.158;2022-10-15T04:04:41;98697.28;;;15.60;100.00
34177;BME280;20450;49.074;9.158;2022-10-15T04:07:08;98706.16;;;15.67;100.00
34177;BME280;20450;49.074;9.158;2022-10-15T04:09:36;98704.16;;;15.77;100.00
34177;BME280;20450;49.074;9.158;2022-10-15T04:12:27;98701.31;;;15.86;100.00
34177;BME280;20450;49.074;9.158;2022-10-15T04:14:54;98707.38;;;15.95;100.00
34177;BME280;20450;49.074;9.158;2022-10-15T04:17:21;98704.09;;;16.01;100.00
34177;BME280;20450;49.074;9.158;2022-10-15T04:19:49;98705.06;;;16.08;100.00
34177;BME280;20450;49.074;9.158;2022-10-15T04:22:16;98703.91;;;16.10;100.00
34177;BME280;20450;49.074;9.158;2022-10-15T04:24:50;98708.81;;;16.13;100.00
34177;BME280;20450;49.074;9.158;2022-10-15T04:27:29;98709.47;;;16.15;100.00
34177;BME280;20450;49.074;9.158;2022-10-15T04:30:06;98722.28;;;16.18;100.00
34177;BME280;20450;49.074;9.158;2022-10-15T04:32:37;98724.72;;;16.20;100.00
34177;BME280;20450;49.074;9.158;2022-10-15T04:35:04;98725.06;;;16.17;100.00
34177;BME280;20450;49.074;9.158;2022-10-15T04:37:49;98730.63;;;16.22;100.00
34177;BME280;20450;49.074;9.158;2022-10-15T04:40:16;98734.91;;;16.23;100.00
34177;BME280;20450;49.074;9.158;2022-10-15T04:42:46;98733.75;;;16.25;100.00
34177;BME280;20450;49.074;9.158;2022-10-15T04:45:13;98738.53;;;16.22;100.00
34177;BME280;20450;49.074;9.158;2022-10-15T04:47:40;98739.19;;;16.16;100.00
34177;BME280;20450;49.074;9.158;2022-10-15T04:50:10;98750.06;;;16.13;100.00
34177;BME280;20450;49.074;9.158;2022-10-15T04:52:58;98767.13;;;16.17;100.00
34177;BME280;20450;49.074;9.158;2022-10-15T04:55:26;98763.16;;;16.21;100.00
34177;BME280;20450;49.074;9.158;2022-10-15T04:57:59;98762.84;;;16.24;100.00
34177;BME280;20450;49.074;9.158;2022-10-15T05:00:29;98774.69;;;16.20;100.00
34177;BME280;20450;49.074;9.158;2022-10-15T05:02:56;98768.78;;;16.18;100.00
34177;BME280;20450;49.074;9.158;2022-10-15T05:05:33;98768.59;;;16.27;100.00
34177;BME280;20450;49.074;9.158;2022-10-15T05:08:03;98778.31;;;16.19;100.00
34177;BME280;20450;49.074;9.158;2022-10-15T05:11:00;98781.72;;;16.19;100.00
34177;BME280;20450;49.074;9.158;2022-10-15T05:13:29;98779.59;;;16.23;100.00
34177;BME280;20450;49.074;9.158;2022-10-15T05:16:08;98785.69;;;16.23;100.00
34177;BME280;20450;49.074;9.158;2022-10-15T05:18:36;98787.66;;;16.21;100.00
34177;BME280;20450;49.074;9.158;2022-10-15T05:21:03;98789.13;;;16.24;100.00
34177;BME280;20450;49.074;9.158;2022-10-15T05:23:34;98792.25;;;16.27;100.00
34177;BME280;20450;49.074;9.158;2022-10-15T05:26:18;98799.16;;;16.28;100.00
34177;BME280;20450;49.074;9.158;2022-10-15T05:28:49;98805.88;;;16.31;100.00
34177;BME280;20450;49.074;9.158;2022-10-15T05:31:27;98803.41;;;16.29;100.00
34177;BME280;20450;49.074;9.158;2022-10-15T05:34:07;98815.91;;;16.27;100.00
34177;BME280;20450;49.074;9.158;2022-10-15T05:36:42;98816.03;;;16.34;100.00
34177;BME280;20450;49.074;9.158;2022-10-15T05:39:09;98829.19;;;16.34;100.00
34177;BME280;20450;49.074;9.158;2022-10-15T05:41:40;98824.75;;;16.34;100.00
34177;BME280;20450;49.074;9.158;2022-10-15T05:44:09;98840.84;;;16.31;100.00
34177;BME280;20450;49.074;9.158;2022-10-15T05:46:37;98839.91;;;16.32;100.00
34177;BME280;20450;49.074;9.158;2022-10-15T05:49:04;98848.75;;;16.31;100.00
34177;BME280;20450;49.074;9.158;2022-10-15T05:52:19;98837.59;;;16.29;100.00
34177;BME280;20450;49.074;9.158;2022-10-15T05:59:22;98863.72;;;16.31;100.00
34177;BME280;20450;49.074;9.158;2022-10-15T06:02:07;98869.13;;;16.29;100.00
34177;BME280;20450;49.074;9.158;2022-10-15T06:04:53;98869.78;;;16.31;100.00
34177;BME280;20450;49.074;9.158;2022-10-15T06:07:42;98865.19;;;16.33;100.00
34177;BME280;20450;49.074;9.158;2022-10-15T06:14:27;98865.06;;;16.19;100.00
34177;BME280;20450;49.074;9.158;2022-10-15T06:17:20;98878.53;;;16.24;100.00
34177;BME280;20450;49.074;9.158;2022-10-15T06:21:19;98892.81;;;16.29;100.00
34177;BME280;20450;49.074;9.158;2022-10-15T06:24:15;98895.59;;;16.28;100.00
34177;BME280;20450;49.074;9.158;2022-10-15T06:30:44;98906.75;;;16.38;100.00
34177;BME280;20450;49.074;9.158;2022-10-15T06:33:18;98908.91;;;16.42;100.00
34177;BME280;20450;49.074;9.158;2022-10-15T06:35:45;98917.00;;;16.41;100.00
34177;BME280;20450;49.074;9.158;2022-10-15T06:38:12;98924.53;;;16.44;100.00
34177;BME280;20450;49.074;9.158;2022-10-15T06:40:39;98937.69;;;16.44;100.00
34177;BME280;20450;49.074;9.158;2022-10-15T06:43:07;98943.09;;;16.42;100.00
34177;BME280;20450;49.074;9.158;2022-10-15T06:45:37;98939.00;;;16.48;100.00
34177;BME280;20450;49.074;9.158;2022-10-15T06:48:10;98941.63;;;16.48;100.00
34177;BME280;20450;49.074;9.158;2022-10-15T06:50:38;98952.78;;;16.50;100.00
34177;BME280;20450;49.074;9.158;2022-10-15T06:53:05;98951.00;;;16.50;100.00
34177;BME280;20450;49.074;9.158;2022-10-15T06:55:33;98955.78;;;16.47;100.00
34177;BME280;20450;49.074;9.158;2022-10-15T06:58:01;98958.22;;;16.48;100.00
34177;BME280;20450;49.074;9.158;2022-10-15T07:00:28;98960.69;;;16.50;100.00
34177;BME280;20450;49.074;9.158;2022-10-15T07:02:55;98969.72;;;16.47;100.00
34177;BME280;20450;49.074;9.158;2022-10-15T07:05:23;98976.13;;;16.45;100.00
34177;BME280;20450;49.074;9.158;2022-10-15T07:07:50;98973.03;;;16.49;100.00
34177;BME280;20450;49.074;9.158;2022-10-15T07:10:19;98984.72;;;16.47;100.00
34177;BME280;20450;49.074;9.158;2022-10-15T07:12:46;98985.66;;;16.46;100.00
34177;BME280;20450;49.074;9.158;2022-10-15T07:15:13;98995.22;;;16.47;100.00
34177;BME280;20450;49.074;9.158;2022-10-15T07:17:48;98992.91;;;16.52;100.00
34177;BME280;20450;49.074;9.158;2022-10-15T07:20:55;98986.47;;;16.54;100.00
34177;BME280;20450;49.074;9.158;2022-10-15T07:23:22;98997.34;;;16.67;100.00
34177;BME280;20450;49.074;9.158;2022-10-15T07:25:53;99006.06;;;16.76;100.00
34177;BME280;20450;49.074;9.158;2022-10-15T07:28:20;99006.03;;;16.84;100.00
34177;BME280;20450;49.074;9.158;2022-10-15T07:30:47;99003.75;;;16.81;100.00
34177;BME280;20450;49.074;9.158;2022-10-15T07:33:14;99006.03;;;16.84;100.00
34177;BME280;20450;49.074;9.158;2022-10-15T07:35:49;99008.66;;;16.84;100.00
34177;BME280;20450;49.074;9.158;2022-10-15T07:38:17;99010.00;;;16.72;100.00
34177;BME280;20450;49.074;9.158;2022-10-15T07:40:44;99017.22;;;16.78;100.00
34177;BME280;20450;49.074;9.158;2022-10-15T07:43:11;99013.59;;;16.87;100.00
34177;BME280;20450;49.074;9.158;2022-10-15T07:45:39;99015.91;;;16.98;100.00
34177;BME280;20450;49.074;9.158;2022-10-15T07:48:05;99017.53;;;16.99;100.00
34177;BME280;20450;49.074;9.158;2022-10-15T07:50:32;99022.94;;;17.05;100.00
34177;BME280;20450;49.074;9.158;2022-10-15T07:53:04;99027.53;;;17.11;100.00
34177;BME280;20450;49.074;9.158;2022-10-15T07:55:32;99029.31;;;17.19;100.00
34177;BME280;20450;49.074;9.158;2022-10-15T07:57:59;99032.28;;;17.24;100.00
34177;BME280;20450;49.074;9.158;2022-10-15T08:00:26;99033.41;;;17.29;100.00
34177;BME280;20450;49.074;9.158;2022-10-15T08:02:53;99038.69;;;17.29;100.00
34177;BME280;20450;49.074;9.158;2022-10-15T08:05:20;99038.19;;;17.34;100.00
34177;BME280;20450;49.074;9.158;2022-10-15T08:07:47;99043.84;;;17.15;100.00
34177;BME280;20450;49.074;9.158;2022-10-15T08:10:14;99035.78;;;17.00;100.00
34177;BME280;20450;49.074;9.158;2022-10-15T08:12:42;99046.81;;;16.88;100.00
34177;BME280;20450;49.074;9.158;2022-10-15T08:15:10;99036.97;;;16.82;100.00
34177;BME280;20450;49.074;9.158;2022-10-15T08:17:36;99043.22;;;16.81;100.00
34177;BME280;20450;49.074;9.158;2022-10-15T08:20:04;99037.47;;;16.69;100.00
34177;BME280;20450;49.074;9.158;2022-10-15T08:22:33;99036.31;;;16.64;100.00
34177;BME280;20450;49.074;9.158;2022-10-15T08:25:03;99048.31;;;16.66;100.00
34177;BME280;20450;49.074;9.158;2022-10-15T08:27:30;99030.38;;;16.62;100.00
34177;BME280;20450;49.074;9.158;2022-10-15T08:30:01;99041.91;;;16.53;100.00
34177;BME280;20450;49.074;9.158;2022-10-15T08:32:27;99039.94;;;16.55;100.00
34177;BME280;20450;49.074;9.158;2022-10-15T08:34:54;99042.88;;;16.52;100.00
34177;BME280;20450;49.074;9.158;2022-10-15T08:37:21;99044.69;;;16.51;100.00
34177;BME280;20450;49.074;9.158;2022-10-15T08:39:48;99050.75;;;16.52;100.00
34177;BME280;20450;49.074;9.158;2022-10-15T08:42:18;99054.06;;;16.54;100.00
34177;BME280;20450;49.074;9.158;2022-10-15T08:44:50;99051.44;;;16.54;100.00
34177;BME280;20450;49.074;9.158;2022-10-15T08:47:28;99053.72;;;16.57;100.00
34177;BME280;20450;49.074;9.158;2022-10-15T08:50:02;99048.47;;;16.57;100.00
34177;BME280;20450;49.074;9.158;2022-10-15T08:52:41;99045.03;;;16.56;100.00
34177;BME280;20450;49.074;9.158;2022-10-15T08:55:11;99049.78;;;16.61;100.00
34177;BME280;20450;49.074;9.158;2022-10-15T08:57:42;99049.78;;;16.61;100.00
34177;BME280;20450;49.074;9.158;2022-10-15T09:00:20;99062.09;;;16.60;100.00
34177;BME280;20450;49.074;9.158;2022-10-15T09:02:55;99056.72;;;16.70;100.00
34177;BME280;20450;49.074;9.158;2022-10-15T09:05:36;99056.03;;;16.68;100.00
34177;BME280;20450;49.074;9.158;2022-10-15T09:08:20;99062.63;;;16.72;100.00
34177;BME280;20450;49.074;9.158;2022-10-15T09:10:56;99061.13;;;16.77;100.00
34177;BME280;20450;49.074;9.158;2022-10-15T09:13:30;99065.56;;;16.93;100.00
34177;BME280;20450;49.074;9.158;2022-10-15T09:16:12;99071.81;;;17.00;100.00
34177;BME280;20450;49.074;9.158;2022-10-15T09:18:46;99067.19;;;17.02;100.00
34177;BME280;20450;49.074;9.158;2022-10-15T09:21:15;99068.84;;;16.95;100.00
34177;BME280;20450;49.074;9.158;2022-10-15T09:23:42;99073.94;;;17.04;100.00
34177;BME280;20450;49.074;9.158;2022-10-15T09:26:36;99074.59;;;17.14;100.00
34177;BME280;20450;49.074;9.158;2022-10-15T09:29:19;99074.41;;;17.24;100.00
34177;BME280;20450;49.074;9.158;2022-10-15T09:31:57;99081.63;;;17.30;100.00
34177;BME280;20450;49.074;9.158;2022-10-15T09:34:41;99086.25;;;17.28;100.00
34177;BME280;20450;49.074;9.158;2022-10-15T09:37:18;99080.97;;;17.36;100.00
34177;BME280;20450;49.074;9.158;2022-10-15T09:40:15;99099.09;;;17.39;100.00
34177;BME280;20450;49.074;9.158;2022-10-15T09:42:55;99103.03;;;17.35;100.00
34177;BME280;20450;49.074;9.158;2022-10-15T09:45:25;99099.09;;;17.39;100.00
34177;BME280;20450;49.074;9.158;2022-10-15T09:47:56;99093.13;;;17.53;100.00
34177;BME280;20450;49.074;9.158;2022-10-15T09:50:27;99096.78;;;17.44;100.00
34177;BME280;20450;49.074;9.158;2022-10-15T09:53:13;99084.25;;;17.46;100.00
34177;BME280;20450;49.074;9.158;2022-10-15T09:56:00;99082.78;;;17.35;100.00
34177;BME280;20450;49.074;9.158;2022-10-15T09:58:38;99091.16;;;17.47;100.00
34177;BME280;20450;49.074;9.158;2022-10-15T10:01:17;99093.16;;;17.45;100.00
34177;BME280;20450;49.074;9.158;2022-10-15T10:03:50;99092.00;;;17.39;100.00
34177;BME280;20450;49.074;9.158;2022-10-15T10:06:22;99096.78;;;17.44;100.00
34177;BME280;20450;49.074;9.158;2022-10-15T10:08:53;99096.75;;;17.36;100.00
34177;BME280;20450;49.074;9.158;2022-10-15T10:11:23;99104.19;;;17.48;100.00
34177;BME280;20450;49.074;9.158;2022-10-15T10:13:54;99097.25;;;17.55;100.00
34177;BME280;20450;49.074;9.158;2022-10-15T10:16:23;99107.78;;;17.63;100.00
34177;BME280;20450;49.074;9.158;2022-10-15T10:19:05;99095.03;;;17.83;100.00
34177;BME280;20450;49.074;9.158;2022-10-15T10:21:40;99100.75;;;18.17;100.00
34177;BME280;20450;49.074;9.158;2022-10-15T10:24:25;99110.22;;;18.42;100.00
34177;BME280;20450;49.074;9.158;2022-10-15T10:26:55;99097.47;;;18.76;100.00
34177;BME280;20450;49.074;9.158;2022-10-15T10:29:24;99114.16;;;20.08;100.00
34177;BME280;20450;49.074;9.158;2022-10-15T10:32:09;99107.41;;;19.77;100.00
34177;BME280;20450;49.074;9.158;2022-10-15T10:34:37;99107.03;;;19.14;100.00
34177;BME280;20450;49.074;9.158;2022-10-15T10:37:12;99103.91;;;18.73;100.00
34177;BME280;20450;49.074;9.158;2022-10-15T10:39:41;99112.59;;;18.82;100.00
34177;BME280;20450;49.074;9.158;2022-10-15T10:42:23;99108.34;;;18.73;100.00
34177;BME280;20450;49.074;9.158;2022-10-15T10:44:53;99125.88;;;18.74;100.00
34177;BME280;20450;49.074;9.158;2022-10-15T10:47:21;99115.06;;;18.83;100.00
34177;BME280;20450;49.074;9.158;2022-10-15T10:49:54;99113.50;;;18.89;100.00
34177;BME280;20450;49.074;9.158;2022-10-15T10:52:25;99121.59;;;19.10;100.00
34177;BME280;20450;49.074;9.158;2022-10-15T10:55:00;99127.69;;;19.33;100.00
34177;BME280;20450;49.074;9.158;2022-10-15T10:57:37;99121.25;;;19.50;100.00
34177;BME280;20450;49.074;9.158;2022-10-15T11:00:13;99120.06;;;19.81;100.00
34177;BME280;20450;49.074;9.158;2022-10-15T11:02:47;99115.75;;;20.24;100.00
34177;BME280;20450;49.074;9.158;2022-10-15T11:05:20;99106.31;;;20.71;99.59
34177;BME280;20450;49.074;9.158;2022-10-15T11:08:00;99111.16;;;24.02;85.31
34177;BME280;20450;49.074;9.158;2022-10-15T11:10:46;99111.25;;;25.93;72.20
34177;BME280;20450;49.074;9.158;2022-10-15T11:13:38;99112.97;;;26.35;70.46
34177;BME280;20450;49.074;9.158;2022-10-15T11:16:19;99103.34;;;24.07;72.90
34177;BME280;20450;49.074;9.158;2022-10-15T11:19:07;99102.84;;;22.15;82.71
34177;BME280;20450;49.074;9.158;2022-10-15T11:22:21;99099.66;;;21.85;82.46
34177;BME280;20450;49.074;9.158;2022-10-15T11:25:13;99097.28;;;21.08;87.94
34177;BME280;20450;49.074;9.158;2022-10-15T11:28:12;99099.88;;;21.01;90.06
34177;BME280;20450;49.074;9.158;2022-10-15T11:30:54;99089.66;;;20.77;87.10
34177;BME280;20450;49.074;9.158;2022-10-15T11:33:41;99105.09;;;20.95;87.58
34177;BME280;20450;49.074;9.158;2022-10-15T11:36:35;99089.47;;;21.00;86.92
34177;BME280;20450;49.074;9.158;2022-10-15T11:39:28;99092.28;;;20.98;86.67
34177;BME280;20450;49.074;9.158;2022-10-15T11:42:15;99087.50;;;21.36;83.46
34177;BME280;20450;49.074;9.158;2022-10-15T11:45:02;99086.66;;;21.63;84.58
34177;BME280;20450;49.074;9.158;2022-10-15T11:47:50;99086.66;;;21.63;83.02
34177;BME280;20450;49.074;9.158;2022-10-15T11:50:27;99078.91;;;21.61;83.33
34177;BME280;20450;49.074;9.158;2022-10-15T11:53:18;99078.06;;;21.61;81.43
34177;BME280;20450;49.074;9.158;2022-10-15T11:56:01;99071.38;;;21.65;84.70
34177;BME280;20450;49.074;9.158;2022-10-15T11:58:39;99064.22;;;21.04;83.94
34177;BME280;20450;49.074;9.158;2022-10-15T12:01:15;99070.97;;;20.85;85.30
34177;BME280;20450;49.074;9.158;2022-10-15T12:03:51;99063.16;;;20.77;84.38
34177;BME280;20450;49.074;9.158;2022-10-15T12:06:25;99056.88;;;20.57;86.76
34177;BME280;20450;49.074;9.158;2022-10-15T12:08:54;99061.06;;;20.31;87.40
34177;BME280;20450;49.074;9.158;2022-10-15T12:11:30;99063.69;;;20.10;88.53
34177;BME280;20450;49.074;9.158;2022-10-15T12:14:16;99062.41;;;20.06;89.56
34177;BME280;20450;49.074;9.158;2022-10-15T12:16:56;99062.03;;;19.94;90.21
34177;BME280;20450;49.074;9.158;2022-10-15T12:19:36;99056.41;;;19.97;92.09
34177;BME280;20450;49.074;9.158;2022-10-15T12:22:11;99058.47;;;20.02;92.67
34177;BME280;20450;49.074;9.158;2022-10-15T12:24:52;99059.50;;;20.01;92.17
34177;BME280;20450;49.074;9.158;2022-10-15T12:27:23;99056.03;;;19.86;90.93
34177;BME280;20450;49.074;9.158;2022-10-15T12:30:24;99050.31;;;19.82;91.45
34177;BME280;20450;49.074;9.158;2022-10-15T12:32:53;99053.56;;;19.84;89.68
34177;BME280;20450;49.074;9.158;2022-10-15T12:35:26;99060.25;;;19.95;89.92
34177;BME280;20450;49.074;9.158;2022-10-15T12:38:10;99043.63;;;20.01;87.25
34177;BME280;20450;49.074;9.158;2022-10-15T12:41:07;99047.81;;;19.95;86.38
34177;BME280;20450;49.074;9.158;2022-10-15T12:43:41;99044.28;;;19.88;88.57
34177;BME280;20450;49.074;9.158;2022-10-15T12:46:12;99050.09;;;20.13;89.21
34177;BME280;20450;49.074;9.158;2022-10-15T12:48:41;99044.84;;;20.34;87.15
34177;BME280;20450;49.074;9.158;2022-10-15T12:51:37;99045.94;;;20.25;87.17
34177;BME280;20450;49.074;9.158;2022-10-15T12:54:37;99037.16;;;20.03;87.53
34177;BME280;20450;49.074;9.158;2022-10-15T13:00:36;99042.06;;;20.06;86.55
34177;BME280;20450;49.074;9.158;2022-10-15T13:03:16;99028.19;;;20.19;88.91
34177;BME280;20450;49.074;9.158;2022-10-15T13:05:49;99038.75;;;20.19;89.95
34177;BME280;20450;49.074;9.158;2022-10-15T13:08:34;99032.16;;;19.94;89.28
34177;BME280;20450;49.074;9.158;2022-10-15T13:11:02;99037.69;;;19.99;90.48
34177;BME280;20450;49.074;9.158;2022-10-15T13:13:33;99039.53;;;19.98;89.95
34177;BME280;20450;49.074;9.158;2022-10-15T13:16:01;99034.44;;;19.82;91.32
34177;BME280;20450;49.074;9.158;2022-10-15T13:18:56;99046.00;;;19.96;93.86
34177;BME280;20450;49.074;9.158;2022-10-15T13:21:46;99044.38;;;19.95;91.96
34177;BME280;20450;49.074;9.158;2022-10-15T13:24:17;99039.06;;;19.95;94.25
34177;BME280;20450;49.074;9.158;2022-10-15T13:26:45;99044.69;;;19.42;95.61
34177;BME280;20450;49.074;9.158;2022-10-15T13:29:15;99042.59;;;19.23;94.54
34177;BME280;20450;49.074;9.158;2022-10-15T13:31:43;99045.09;;;19.16;94.74
34177;BME280;20450;49.074;9.158;2022-10-15T13:34:20;99040.72;;;19.09;97.86
34177;BME280;20450;49.074;9.158;2022-10-15T13:36:52;99039.97;;;18.86;98.11
34177;BME280;20450;49.074;9.158;2022-10-15T13:39:29;99044.28;;;18.79;100.00
34177;BME280;20450;49.074;9.158;2022-10-15T13:42:07;99051.47;;;18.70;99.50
34177;BME280;20450;49.074;9.158;2022-10-15T13:44:35;99046.72;;;18.66;98.62
34177;BME280;20450;49.074;9.158;2022-10-15T13:47:02;99045.53;;;18.68;99.19
34177;BME280;20450;49.074;9.158;2022-10-15T13:49:50;99049.03;;;18.69;100.00
34177;BME280;20450;49.074;9.158;2022-10-15T13:52:17;99038.47;;;18.69;100.00
34177;BME280;20450;49.074;9.158;2022-10-15T13:54:44;99036.56;;;18.77;99.57
34177;BME280;20450;49.074;9.158;2022-10-15T13:57:14;99047.00;;;18.71;99.86